sensor_id;sensor_type;location;lat;lon;timestamp;pressure;altitude;pressure_sealevel;temperature;humidity
13241;BME280;6687;47.790;7.322;2024-02-14T06:19:21;99557.47;;;10.62;72.98
13241;BME280;6687;47.790;7.322;2024-02-14T06:21:47;99548.88;;;10.65;73.80
13241;BME280;6687;47.790;7.322;2024-02-14T06:24:14;99548.06;;;10.69;72.86
13241;BME280;6687;47.790;7.322;2024-02-14T06:26:41;99550.63;;;10.69;72.18
13241;BME280;6687;47.790;7.322;2024-02-14T06:29:07;99547.25;;;10.74;72.56
13241;BME280;6687;47.790;7.322;2024-02-14T06:31:34;99554.13;;;10.72;72.22
13241;BME280;6687;47.790;7.322;2024-02-14T06:34:01;99556.66;;;10.68;72.75
13241;BME280;6687;47.790;7.322;2024-02-14T06:36:29;99566.28;;;10.77;72.25
13241;BME280;6687;47.790;7.322;2024-02-14T06:38:56;99565.38;;;10.73;72.11
13241;BME280;6687;47.790;7.322;2024-02-14T06:41:22;99565.38;;;10.73;70.60
13241;BME280;6687;47.790;7.322;2024-02-14T06:43:49;99583.66;;;10.87;71.64
13241;BME280;6687;47.790;7.322;2024-02-14T06:46:16;99581.94;;;10.87;71.64
13241;BME280;6687;47.790;7.322;2024-02-14T06:48:44;99583.56;;;10.79;70.64
13241;BME280;6687;47.790;7.322;2024-02-14T06:51:10;99590.59;;;10.86;70.45
13241;BME280;6687;47.790;7.322;2024-02-14T06:53:38;99594.94;;;10.90;71.13
13241;BME280;6687;47.790;7.322;2024-02-14T06:56:06;99600.16;;;10.95;71.74
13241;BME280;6687;47.790;7.322;2024-02-14T06:58:32;99606.97;;;10.85;71.01
13241;BME280;6687;47.790;7.322;2024-02-14T07:00:59;99611.38;;;10.94;71.20
13241;BME280;6687;47.790;7.322;2024-02-14T07:03:26;99600.19;;;10.97;70.64
13241;BME280;6687;47.790;7.322;2024-02-14T07:05:52;99610.56;;;10.97;70.85
13241;BME280;6687;47.790;7.322;2024-02-14T07:08:19;99601.06;;;10.99;71.06
13241;BME280;6687;47.790;7.322;2024-02-14T07:10:47;99608.81;;;10.95;70.54
13241;BME280;6687;47.790;7.322;2024-02-14T07:13:14;99611.41;;;10.97;70.95
13241;BME280;6687;47.790;7.322;2024-02-14T07:15:41;99601.09;;;11.00;70.98
13241;BME280;6687;47.790;7.322;2024-02-14T07:18:08;99606.28;;;11.03;71.21
13241;BME280;6687;47.790;7.322;2024-02-14T07:20:35;99598.50;;;11.02;70.86
13241;BME280;6687;47.790;7.322;2024-02-14T07:23:02;99606.28;;;11.03;71.18
13241;BME280;6687;47.790;7.322;2024-02-14T07:25:29;99614.13;;;11.08;71.07
13241;BME280;6687;47.790;7.322;2024-02-14T07:27:57;99615.88;;;11.09;71.01
13241;BME280;6687;47.790;7.322;2024-02-14T07:30:24;99617.63;;;11.13;71.12
13241;BME280;6687;47.790;7.322;2024-02-14T07:32:51;99615.81;;;11.06;70.92
13241;BME280;6687;47.790;7.322;2024-02-14T07:35:17;99629.75;;;11.14;70.94
13241;BME280;6687;47.790;7.322;2024-02-14T07:37:44;99628.94;;;11.18;71.07
13241;BME280;6687;47.790;7.322;2024-02-14T07:40:11;99631.44;;;11.12;71.13
13241;BME280;6687;47.790;7.322;2024-02-14T07:42:38;99628.97;;;11.23;71.01
13241;BME280;6687;47.790;7.322;2024-02-14T07:45:07;99632.28;;;11.06;71.88
13241;BME280;6687;47.790;7.322;2024-02-14T07:47:33;99635.00;;;11.20;71.47
13241;BME280;6687;47.790;7.322;2024-02-14T07:50:00;99637.66;;;11.25;71.09
13241;BME280;6687;47.790;7.322;2024-02-14T07:52:28;99631.59;;;11.27;70.92
13241;BME280;6687;47.790;7.322;2024-02-14T07:54:55;99634.16;;;11.23;71.49
13241;BME280;6687;47.790;7.322;2024-02-14T07:57:22;99633.34;;;11.27;71.69
13241;BME280;6687;47.790;7.322;2024-02-14T07:59:50;99635.09;;;11.29;71.70
13241;BME280;6687;47.790;7.322;2024-02-14T08:02:19;99637.66;;;11.26;71.69
13241;BME280;6687;47.790;7.322;2024-02-14T08:04:46;99625.59;;;11.31;72.01
13241;BME280;6687;47.790;7.322;2024-02-14T08:07:12;99625.72;;;11.42;71.69
13241;BME280;6687;47.790;7.322;2024-02-14T08:09:39;99628.22;;;11.33;71.77
13241;BME280;6687;47.790;7.322;2024-02-14T08:12:06;99627.38;;;11.37;71.84
13241;BME280;6687;47.790;7.322;2024-02-14T08:14:33;99628.38;;;11.53;71.41
13241;BME280;6687;47.790;7.322;2024-02-14T08:16:59;99623.16;;;11.47;71.82
13241;BME280;6687;47.790;7.322;2024-02-14T08:19:27;99634.31;;;11.38;72.33
13241;BME280;6687;47.790;7.322;2024-02-14T08:21:54;99635.16;;;11.35;73.25
13241;BME280;6687;47.790;7.322;2024-02-14T08:24:24;99640.44;;;11.48;72.63
13241;BME280;6687;47.790;7.322;2024-02-14T08:26:51;99638.63;;;11.38;74.03
13241;BME280;6687;47.790;7.322;2024-02-14T08:29:18;99640.47;;;11.51;72.95
13241;BME280;6687;47.790;7.322;2024-02-14T08:31:45;99638.81;;;11.56;73.14
13241;BME280;6687;47.790;7.322;2024-02-14T08:34:12;99633.44;;;11.38;73.64
13241;BME280;6687;47.790;7.322;2024-02-14T08:36:40;99632.75;;;11.54;73.90
13241;BME280;6687;47.790;7.322;2024-02-14T08:39:07;99633.63;;;11.58;74.12
13241;BME280;6687;47.790;7.322;2024-02-14T08:41:35;99629.34;;;11.63;73.54
13241;BME280;6687;47.790;7.322;2024-02-14T08:44:01;99631.19;;;11.78;72.71
13241;BME280;6687;47.790;7.322;2024-02-14T08:46:30;99638.06;;;11.71;73.01
13241;BME280;6687;47.790;7.322;2024-02-14T08:48:57;99640.66;;;11.71;73.98
13241;BME280;6687;47.790;7.322;2024-02-14T08:51:24;99643.19;;;11.65;74.03
13241;BME280;6687;47.790;7.322;2024-02-14T08:53:52;99641.53;;;11.73;74.41
13241;BME280;6687;47.790;7.322;2024-02-14T08:56:21;99647.72;;;11.86;73.84
13241;BME280;6687;47.790;7.322;2024-02-14T08:58:47;99647.75;;;11.89;73.20
13241;BME280;6687;47.790;7.322;2024-02-14T09:01:14;99650.38;;;11.93;73.28
13241;BME280;6687;47.790;7.322;2024-02-14T09:03:41;99648.78;;;12.08;72.52
13241;BME280;6687;47.790;7.322;2024-02-14T09:06:13;99648.66;;;11.96;72.89
13241;BME280;6687;47.790;7.322;2024-02-14T09:08:39;99647.00;;;12.04;73.71
13241;BME280;6687;47.790;7.322;2024-02-14T09:11:08;99657.53;;;12.27;72.72
13241;BME280;6687;47.790;7.322;2024-02-14T09:13:35;99654.03;;;12.23;72.21
13241;BME280;6687;47.790;7.322;2024-02-14T09:16:01;99656.72;;;12.34;72.51
13241;BME280;6687;47.790;7.322;2024-02-14T09:18:28;99648.06;;;12.35;72.18
13241;BME280;6687;47.790;7.322;2024-02-14T09:20:57;99660.19;;;12.34;73.14
13241;BME280;6687;47.790;7.322;2024-02-14T09:23:23;99658.56;;;12.61;72.04
13241;BME280;6687;47.790;7.322;2024-02-14T09:25:50;99667.28;;;12.62;71.75
13241;BME280;6687;47.790;7.322;2024-02-14T09:28:19;99666.38;;;12.61;71.76
13241;BME280;6687;47.790;7.322;2024-02-14T09:30:46;99662.03;;;12.56;72.06
13241;BME280;6687;47.790;7.322;2024-02-14T09:33:13;99665.63;;;12.78;70.85
13241;BME280;6687;47.790;7.322;2024-02-14T09:35:40;99660.44;;;12.88;71.23
13241;BME280;6687;47.790;7.322;2024-02-14T09:38:09;99664.78;;;12.89;70.70
13241;BME280;6687;47.790;7.322;2024-02-14T09:40:36;99663.91;;;12.84;70.76
13241;BME280;6687;47.790;7.322;2024-02-14T09:43:05;99663.94;;;12.97;71.15
13241;BME280;6687;47.790;7.322;2024-02-14T09:45:39;99677.78;;;12.86;71.68
13241;BME280;6687;47.790;7.322;2024-02-14T09:48:09;99670.88;;;12.98;70.80
13241;BME280;6687;47.790;7.322;2024-02-14T09:50:36;99672.63;;;13.05;70.73
13241;BME280;6687;47.790;7.322;2024-02-14T09:53:04;99668.31;;;13.14;70.68
13241;BME280;6687;47.790;7.322;2024-02-14T09:55:31;99666.59;;;13.13;70.76
13241;BME280;6687;47.790;7.322;2024-02-14T09:57:58;99670.94;;;13.16;70.62
13241;BME280;6687;47.790;7.322;2024-02-14T10:00:31;99668.31;;;13.04;70.74
13241;BME280;6687;47.790;7.322;2024-02-14T10:03:02;99663.91;;;12.90;71.84
13241;BME280;6687;47.790;7.322;2024-02-14T10:05:29;99669.22;;;13.15;70.72
13241;BME280;6687;47.790;7.322;2024-02-14T10:07:56;99661.41;;;13.15;71.39
13241;BME280;6687;47.790;7.322;2024-02-14T10:10:24;99664.00;;;13.12;71.28
13241;BME280;6687;47.790;7.322;2024-02-14T10:12:51;99671.81;;;13.13;71.42
13241;BME280;6687;47.790;7.322;2024-02-14T10:15:20;99674.44;;;13.27;71.50
13241;BME280;6687;47.790;7.322;2024-02-14T10:17:47;99668.34;;;13.11;71.97
13241;BME280;6687;47.790;7.322;2024-02-14T10:20:17;99683.94;;;13.11;72.60
13241;BME280;6687;47.790;7.322;2024-02-14T10:22:45;99678.72;;;13.10;72.54
13241;BME280;6687;47.790;7.322;2024-02-14T10:25:12;99679.66;;;13.27;72.60
13241;BME280;6687;47.790;7.322;2024-02-14T10:27:40;99677.88;;;13.14;72.76
13241;BME280;6687;47.790;7.322;2024-02-14T10:30:08;99681.34;;;13.16;73.24
13241;BME280;6687;47.790;7.322;2024-02-14T10:32:35;99682.22;;;13.23;73.09
13241;BME280;6687;47.790;7.322;2024-02-14T10:35:04;99679.63;;;13.18;74.17
13241;BME280;6687;47.790;7.322;2024-02-14T10:37:35;99670.03;;;13.02;74.30
13241;BME280;6687;47.790;7.322;2024-02-14T10:40:02;99673.53;;;13.14;74.81
13241;BME280;6687;47.790;7.322;2024-02-14T10:42:30;99664.00;;;13.20;74.47
13241;BME280;6687;47.790;7.322;2024-02-14T10:44:56;99662.28;;;13.17;74.98
13241;BME280;6687;47.790;7.322;2024-02-14T10:47:25;99664.00;;;13.15;74.82
13241;BME280;6687;47.790;7.322;2024-02-14T10:49:57;99658.81;;;13.24;74.65
13241;BME280;6687;47.790;7.322;2024-02-14T10:52:28;99655.31;;;13.21;75.60
13241;BME280;6687;47.790;7.322;2024-02-14T10:54:59;99647.59;;;13.31;75.63
13241;BME280;6687;47.790;7.322;2024-02-14T10:57:28;99648.44;;;13.37;75.58
13241;BME280;6687;47.790;7.322;2024-02-14T10:59:56;99651.00;;;13.29;76.27
13241;BME280;6687;47.790;7.322;2024-02-14T11:02:24;99662.22;;;12.99;77.59
13241;BME280;6687;47.790;7.322;2024-02-14T11:04:52;99671.75;;;12.98;77.90
13241;BME280;6687;47.790;7.322;2024-02-14T11:07:20;99673.63;;;13.38;77.55
13241;BME280;6687;47.790;7.322;2024-02-14T11:09:48;99674.50;;;13.52;76.96
13241;BME280;6687;47.790;7.322;2024-02-14T11:12:17;99675.31;;;13.28;77.90
13241;BME280;6687;47.790;7.322;2024-02-14T11:14:49;99678.81;;;13.30;78.46
13241;BME280;6687;47.790;7.322;2024-02-14T11:17:19;99674.41;;;13.12;79.39
13241;BME280;6687;47.790;7.322;2024-02-14T11:19:51;99685.72;;;13.26;79.16
13241;BME280;6687;47.790;7.322;2024-02-14T11:22:19;99681.34;;;13.22;79.48
13241;BME280;6687;47.790;7.322;2024-02-14T11:24:47;99680.59;;;13.52;78.08
13241;BME280;6687;47.790;7.322;2024-02-14T11:27:14;99683.16;;;13.39;78.73
13241;BME280;6687;47.790;7.322;2024-02-14T11:29:51;99673.63;;;13.41;78.97
13241;BME280;6687;47.790;7.322;2024-02-14T11:32:18;99685.72;;;13.28;79.77
13241;BME280;6687;47.790;7.322;2024-02-14T11:34:53;99681.47;;;13.62;79.63
13241;BME280;6687;47.790;7.322;2024-02-14T11:37:20;99671.06;;;13.65;77.39
13241;BME280;6687;47.790;7.322;2024-02-14T11:39:49;99675.41;;;13.86;77.76
13241;BME280;6687;47.790;7.322;2024-02-14T11:42:16;99665.88;;;14.01;77.51
13241;BME280;6687;47.790;7.322;2024-02-14T11:44:45;99667.59;;;14.09;77.78
13241;BME280;6687;47.790;7.322;2024-02-14T11:47:13;99678.88;;;14.08;77.42
13241;BME280;6687;47.790;7.322;2024-02-14T11:49:39;99662.38;;;14.09;78.41
13241;BME280;6687;47.790;7.322;2024-02-14T11:52:09;99668.44;;;14.11;77.92
13241;BME280;6687;47.790;7.322;2024-02-14T11:54:36;99664.09;;;14.29;76.73
13241;BME280;6687;47.790;7.322;2024-02-14T11:57:03;99665.81;;;14.24;78.16
13241;BME280;6687;47.790;7.322;2024-02-14T11:59:30;99664.09;;;14.13;78.29
13241;BME280;6687;47.790;7.322;2024-02-14T12:01:59;99659.75;;;14.20;78.14
13241;BME280;6687;47.790;7.322;2024-02-14T12:04:28;99659.72;;;14.39;77.24
13241;BME280;6687;47.790;7.322;2024-02-14T12:06:55;99651.91;;;14.28;77.68
13241;BME280;6687;47.790;7.322;2024-02-14T12:09:22;99646.66;;;14.48;77.50
13241;BME280;6687;47.790;7.322;2024-02-14T12:11:48;99644.88;;;14.64;77.83
13241;BME280;6687;47.790;7.322;2024-02-14T12:14:15;99653.56;;;14.78;77.06
13241;BME280;6687;47.790;7.322;2024-02-14T12:16:44;99649.22;;;14.54;77.77
13241;BME280;6687;47.790;7.322;2024-02-14T12:19:15;99649.19;;;14.77;77.21
13241;BME280;6687;47.790;7.322;2024-02-14T12:21:42;99650.09;;;14.73;77.84
13241;BME280;6687;47.790;7.322;2024-02-14T12:24:10;99644.03;;;14.62;77.28
13241;BME280;6687;47.790;7.322;2024-02-14T12:26:38;99641.28;;;14.96;77.06
13241;BME280;6687;47.790;7.322;2024-02-14T12:29:07;99656.19;;;14.66;77.19
13241;BME280;6687;47.790;7.322;2024-02-14T12:31:34;99648.41;;;14.49;77.97
13241;BME280;6687;47.790;7.322;2024-02-14T12:34:03;99652.75;;;14.42;77.68
13241;BME280;6687;47.790;7.322;2024-02-14T12:36:32;99644.78;;;14.96;76.71
13241;BME280;6687;47.790;7.322;2024-02-14T12:38:59;99630.06;;;14.77;76.76
13241;BME280;6687;47.790;7.322;2024-02-14T12:41:28;99630.97;;;14.68;77.98
13241;BME280;6687;47.790;7.322;2024-02-14T12:43:55;99637.84;;;14.90;77.36
13241;BME280;6687;47.790;7.322;2024-02-14T12:46:22;99639.69;;;14.42;77.94
13241;BME280;6687;47.790;7.322;2024-02-14T12:48:49;99638.81;;;14.63;78.24
13241;BME280;6687;47.790;7.322;2024-02-14T12:51:16;99632.75;;;14.47;77.70
13241;BME280;6687;47.790;7.322;2024-02-14T12:53:44;99635.25;;;14.80;77.37
13241;BME280;6687;47.790;7.322;2024-02-14T12:56:11;99634.47;;;14.62;77.82
13241;BME280;6687;47.790;7.322;2024-02-14T12:58:39;99624.75;;;14.95;77.63
13241;BME280;6687;47.790;7.322;2024-02-14T13:01:06;99627.28;;;15.12;76.08
13241;BME280;6687;47.790;7.322;2024-02-14T13:03:36;99627.25;;;15.18;76.80
13241;BME280;6687;47.790;7.322;2024-02-14T13:06:03;99636.91;;;15.02;76.83
13241;BME280;6687;47.790;7.322;2024-02-14T13:08:30;99635.13;;;15.07;77.43
13241;BME280;6687;47.790;7.322;2024-02-14T13:10:59;99636.19;;;14.71;77.28
13241;BME280;6687;47.790;7.322;2024-02-14T13:13:25;99623.03;;;14.93;77.54
13241;BME280;6687;47.790;7.322;2024-02-14T13:15:55;99616.66;;;15.38;76.68
13241;BME280;6687;47.790;7.322;2024-02-14T13:18:21;99613.09;;;15.48;76.23
13241;BME280;6687;47.790;7.322;2024-02-14T13:20:48;99623.81;;;15.10;76.77
13241;BME280;6687;47.790;7.322;2024-02-14T13:23:22;99613.25;;;15.25;77.55
13241;BME280;6687;47.790;7.322;2024-02-14T13:25:50;99611.63;;;15.12;77.02
13241;BME280;6687;47.790;7.322;2024-02-14T13:28:18;99613.22;;;15.35;76.20
13241;BME280;6687;47.790;7.322;2024-02-14T13:30:45;99612.31;;;15.39;76.76
13241;BME280;6687;47.790;7.322;2024-02-14T13:33:13;99614.88;;;15.42;77.28
13241;BME280;6687;47.790;7.322;2024-02-14T13:35:39;99608.16;;;15.07;77.15
13241;BME280;6687;47.790;7.322;2024-02-14T13:38:06;99612.41;;;15.25;77.40
13241;BME280;6687;47.790;7.322;2024-02-14T13:40:35;99607.94;;;15.38;76.13
13241;BME280;6687;47.790;7.322;2024-02-14T13:43:01;99618.28;;;15.51;76.67
13241;BME280;6687;47.790;7.322;2024-02-14T13:45:41;99609.66;;;15.45;77.03
13241;BME280;6687;47.790;7.322;2024-02-14T13:48:09;99606.84;;;15.74;76.78
13241;BME280;6687;47.790;7.322;2024-02-14T13:50:36;99597.28;;;15.68;75.87
13241;BME280;6687;47.790;7.322;2024-02-14T13:53:03;99597.13;;;15.85;76.74
13241;BME280;6687;47.790;7.322;2024-02-14T13:55:30;99592.75;;;15.90;76.30
13241;BME280;6687;47.790;7.322;2024-02-14T13:57:56;99597.31;;;15.64;76.73
13241;BME280;6687;47.790;7.322;2024-02-14T14:00:23;99601.63;;;15.73;76.37
13241;BME280;6687;47.790;7.322;2024-02-14T14:02:51;99591.84;;;15.93;76.25
13241;BME280;6687;47.790;7.322;2024-02-14T14:05:19;99598.09;;;15.80;76.51
13241;BME280;6687;47.790;7.322;2024-02-14T14:07:47;99590.25;;;15.80;76.83
13241;BME280;6687;47.790;7.322;2024-02-14T14:10:14;99603.31;;;15.78;76.35
13241;BME280;6687;47.790;7.322;2024-02-14T14:12:41;99592.09;;;15.62;75.61
13241;BME280;6687;47.790;7.322;2024-02-14T14:15:08;99589.44;;;15.65;75.95
13241;BME280;6687;47.790;7.322;2024-02-14T14:17:35;99584.91;;;15.89;76.83
13241;BME280;6687;47.790;7.322;2024-02-14T14:20:05;99581.44;;;15.90;77.02
13241;BME280;6687;47.790;7.322;2024-02-14T14:22:33;99576.28;;;15.84;76.07
13241;BME280;6687;47.790;7.322;2024-02-14T14:25:00;99583.25;;;15.82;76.56
13241;BME280;6687;47.790;7.322;2024-02-14T14:27:28;99582.31;;;15.87;77.66
13241;BME280;6687;47.790;7.322;2024-02-14T14:29:54;99577.16;;;15.81;76.26
13241;BME280;6687;47.790;7.322;2024-02-14T14:32:21;99594.63;;;15.71;77.54
13241;BME280;6687;47.790;7.322;2024-02-14T14:34:48;99590.31;;;15.67;77.37
13241;BME280;6687;47.790;7.322;2024-02-14T14:37:16;99584.16;;;15.71;77.05
13241;BME280;6687;47.790;7.322;2024-02-14T14:39:42;99592.81;;;15.84;77.45
13241;BME280;6687;47.790;7.322;2024-02-14T14:42:10;99588.44;;;15.88;78.44
13241;BME280;6687;47.790;7.322;2024-02-14T14:44:37;99576.22;;;15.90;77.99
13241;BME280;6687;47.790;7.322;2024-02-14T14:47:05;99575.31;;;15.91;76.93
13241;BME280;6687;47.790;7.322;2024-02-14T14:49:31;99572.75;;;15.85;77.99
13241;BME280;6687;47.790;7.322;2024-02-14T14:51:59;99576.22;;;15.87;78.47
13241;BME280;6687;47.790;7.322;2024-02-14T14:54:30;99564.88;;;15.89;77.77
13241;BME280;6687;47.790;7.322;2024-02-14T14:56:57;99559.63;;;15.94;77.85
13241;BME280;6687;47.790;7.322;2024-02-14T14:59:24;99559.63;;;15.91;78.38
13241;BME280;6687;47.790;7.322;2024-02-14T15:01:50;99572.69;;;15.94;79.01
13241;BME280;6687;47.790;7.322;2024-02-14T15:04:19;99571.13;;;15.73;78.46
13241;BME280;6687;47.790;7.322;2024-02-14T15:06:46;99562.31;;;15.85;78.95
13241;BME280;6687;47.790;7.322;2024-02-14T15:09:12;99557.16;;;15.79;78.45
13241;BME280;6687;47.790;7.322;2024-02-14T15:11:41;99558.00;;;15.81;79.11
13241;BME280;6687;47.790;7.322;2024-02-14T15:14:07;99561.47;;;15.81;78.50
13241;BME280;6687;47.790;7.322;2024-02-14T15:16:34;99565.84;;;15.81;78.81
13241;BME280;6687;47.790;7.322;2024-02-14T15:19:01;99564.19;;;15.67;78.79
13241;BME280;6687;47.790;7.322;2024-02-14T15:21:27;99560.66;;;15.78;78.82
13241;BME280;6687;47.790;7.322;2024-02-14T15:23:54;99560.63;;;15.79;78.99
13241;BME280;6687;47.790;7.322;2024-02-14T15:26:21;99552.88;;;15.68;78.86
13241;BME280;6687;47.790;7.322;2024-02-14T15:28:51;99563.25;;;15.71;79.12
13241;BME280;6687;47.790;7.322;2024-02-14T15:31:39;99565.19;;;15.51;80.04
13241;BME280;6687;47.790;7.322;2024-02-14T15:34:23;99558.03;;;15.71;79.72
13241;BME280;6687;47.790;7.322;2024-02-14T15:36:50;99563.38;;;15.58;79.47
13241;BME280;6687;47.790;7.322;2024-02-14T15:39:16;99553.72;;;15.67;79.16
13241;BME280;6687;47.790;7.322;2024-02-14T15:41:43;99545.88;;;15.70;78.97
13241;BME280;6687;47.790;7.322;2024-02-14T15:44:12;99551.28;;;15.47;79.91
13241;BME280;6687;47.790;7.322;2024-02-14T15:46:38;99538.09;;;15.64;78.67
13241;BME280;6687;47.790;7.322;2024-02-14T15:49:05;99549.50;;;15.54;79.03
13241;BME280;6687;47.790;7.322;2024-02-14T15:51:37;99545.22;;;15.47;79.66
13241;BME280;6687;47.790;7.322;2024-02-14T15:54:04;99551.22;;;15.55;79.26
13241;BME280;6687;47.790;7.322;2024-02-14T15:56:30;99541.75;;;15.48;79.31
13241;BME280;6687;47.790;7.322;2024-02-14T15:58:57;99543.44;;;15.52;79.03
13241;BME280;6687;47.790;7.322;2024-02-14T16:01:25;99556.63;;;15.38;78.85
13241;BME280;6687;47.790;7.322;2024-02-14T16:03:53;99553.94;;;15.46;79.08
13241;BME280;6687;47.790;7.322;2024-02-14T16:06:19;99553.97;;;15.43;79.53
13241;BME280;6687;47.790;7.322;2024-02-14T16:08:46;99552.25;;;15.39;79.26
13241;BME280;6687;47.790;7.322;2024-02-14T16:11:14;99546.97;;;15.42;79.73
13241;BME280;6687;47.790;7.322;2024-02-14T16:13:40;99548.78;;;15.34;79.32
13241;BME280;6687;47.790;7.322;2024-02-14T16:16:07;99549.66;;;15.36;80.38
13241;BME280;6687;47.790;7.322;2024-02-14T16:18:35;99549.69;;;15.34;79.84
13241;BME280;6687;47.790;7.322;2024-02-14T16:21:02;99557.53;;;15.29;79.33
13241;BME280;6687;47.790;7.322;2024-02-14T16:23:29;99555.81;;;15.25;79.63
13241;BME280;6687;47.790;7.322;2024-02-14T16:25:55;99556.72;;;15.24;80.83
13241;BME280;6687;47.790;7.322;2024-02-14T16:28:22;99559.31;;;15.24;80.33
13241;BME280;6687;47.790;7.322;2024-02-14T16:30:49;99557.63;;;15.20;80.40
13241;BME280;6687;47.790;7.322;2024-02-14T16:33:16;99563.69;;;15.19;80.66
13241;BME280;6687;47.790;7.322;2024-02-14T16:35:44;99562.00;;;15.18;80.52
13241;BME280;6687;47.790;7.322;2024-02-14T16:38:11;99562.88;;;15.14;80.57
13241;BME280;6687;47.790;7.322;2024-02-14T16:40:38;99573.34;;;15.13;80.87
13241;BME280;6687;47.790;7.322;2024-02-14T16:43:05;99560.31;;;15.06;81.38
13241;BME280;6687;47.790;7.322;2024-02-14T16:45:34;99563.78;;;15.07;81.28
13241;BME280;6687;47.790;7.322;2024-02-14T16:48:01;99567.31;;;15.04;81.41
13241;BME280;6687;47.790;7.322;2024-02-14T16:50:28;99569.06;;;15.01;81.52
13241;BME280;6687;47.790;7.322;2024-02-14T16:52:57;99573.44;;;14.99;82.06
13241;BME280;6687;47.790;7.322;2024-02-14T16:55:25;99578.63;;;14.99;81.67
13241;BME280;6687;47.790;7.322;2024-02-14T16:57:52;99584.75;;;14.95;82.04
13241;BME280;6687;47.790;7.322;2024-02-14T17:00:19;99584.75;;;14.93;82.33
13241;BME280;6687;47.790;7.322;2024-02-14T17:02:46;99579.53;;;14.90;82.69
13241;BME280;6687;47.790;7.322;2024-02-14T17:05:13;99576.97;;;14.88;83.21
13241;BME280;6687;47.790;7.322;2024-02-14T17:07:40;99570.88;;;14.86;83.54
13241;BME280;6687;47.790;7.322;2024-02-14T17:10:08;99572.69;;;14.72;84.13
13241;BME280;6687;47.790;7.322;2024-02-14T17:12:35;99573.50;;;14.83;83.21
13241;BME280;6687;47.790;7.322;2024-02-14T17:15:02;99572.66;;;14.83;83.50
13241;BME280;6687;47.790;7.322;2024-02-14T17:17:30;99571.78;;;14.79;83.87
13241;BME280;6687;47.790;7.322;2024-02-14T17:19:57;99571.78;;;14.79;83.61
13241;BME280;6687;47.790;7.322;2024-02-14T17:22:24;99570.94;;;14.79;83.51
13241;BME280;6687;47.790;7.322;2024-02-14T17:24:51;99561.34;;;14.76;83.80
13241;BME280;6687;47.790;7.322;2024-02-14T17:27:21;99556.13;;;14.76;84.23
13241;BME280;6687;47.790;7.322;2024-02-14T17:29:48;99554.41;;;14.75;84.52
13241;BME280;6687;47.790;7.322;2024-02-14T17:32:15;99556.16;;;14.73;84.23
13241;BME280;6687;47.790;7.322;2024-02-14T17:34:42;99560.53;;;14.71;84.48
13241;BME280;6687;47.790;7.322;2024-02-14T17:37:08;99572.72;;;14.70;84.53
13241;BME280;6687;47.790;7.322;2024-02-14T17:39:35;99562.28;;;14.70;84.28
13241;BME280;6687;47.790;7.322;2024-02-14T17:42:02;99563.13;;;14.73;84.06
13241;BME280;6687;47.790;7.322;2024-02-14T17:44:30;99569.25;;;14.65;84.13
13241;BME280;6687;47.790;7.322;2024-02-14T17:46:57;99563.19;;;14.62;84.15
13241;BME280;6687;47.790;7.322;2024-02-14T17:49:24;99567.53;;;14.61;84.31
13241;BME280;6687;47.790;7.322;2024-02-14T17:51:50;99569.25;;;14.65;84.21
13241;BME280;6687;47.790;7.322;2024-02-14T17:54:17;99555.34;;;14.54;84.50
13241;BME280;6687;47.790;7.322;2024-02-14T17:56:44;99569.28;;;14.62;84.51
13241;BME280;6687;47.790;7.322;2024-02-14T17:59:11;99564.03;;;14.64;83.88
13241;BME280;6687;47.790;7.322;2024-02-14T18:01:41;99564.06;;;14.62;84.38
13241;BME280;6687;47.790;7.322;2024-02-14T18:04:08;99565.78;;;14.60;84.59
13241;BME280;6687;47.790;7.322;2024-02-14T18:06:35;99572.75;;;14.61;83.99
13241;BME280;6687;47.790;7.322;2024-02-14T18:09:02;99571.88;;;14.59;84.20
13241;BME280;6687;47.790;7.322;2024-02-14T18:11:28;99573.59;;;14.56;84.91
13241;BME280;6687;47.790;7.322;2024-02-14T18:13:55;99572.75;;;14.58;84.44
13241;BME280;6687;47.790;7.322;2024-02-14T18:16:22;99561.47;;;14.58;84.65
13241;BME280;6687;47.790;7.322;2024-02-14T18:18:50;99570.13;;;14.58;84.50
13241;BME280;6687;47.790;7.322;2024-02-14T18:21:17;99568.41;;;14.56;85.03
13241;BME280;6687;47.790;7.322;2024-02-14T18:23:44;99571.88;;;14.58;84.58
13241;BME280;6687;47.790;7.322;2024-02-14T18:26:11;99570.19;;;14.57;84.99
13241;BME280;6687;47.790;7.322;2024-02-14T18:28:38;99567.53;;;14.53;84.83
13241;BME280;6687;47.790;7.322;2024-02-14T18:31:05;99576.22;;;14.56;84.92
13241;BME280;6687;47.790;7.322;2024-02-14T18:33:37;99573.59;;;14.54;84.85
13241;BME280;6687;47.790;7.322;2024-02-14T18:36:06;99570.16;;;14.50;85.00
13241;BME280;6687;47.790;7.322;2024-02-14T18:38:33;99572.78;;;14.50;85.02
13241;BME280;6687;47.790;7.322;2024-02-14T18:41:00;99566.66;;;14.51;85.35
13241;BME280;6687;47.790;7.322;2024-02-14T18:43:26;99571.03;;;14.51;85.34
13241;BME280;6687;47.790;7.322;2024-02-14T18:45:53;99559.75;;;14.47;85.72
13241;BME280;6687;47.790;7.322;2024-02-14T18:48:20;99561.50;;;14.48;85.20
13241;BME280;6687;47.790;7.322;2024-02-14T18:50:47;99561.50;;;14.48;85.09
13241;BME280;6687;47.790;7.322;2024-02-14T18:53:15;99565.81;;;14.48;84.84
13241;BME280;6687;47.790;7.322;2024-02-14T18:55:42;99564.97;;;14.41;85.52
13241;BME280;6687;47.790;7.322;2024-02-14T18:58:09;99563.25;;;14.43;85.46
13241;BME280;6687;47.790;7.322;2024-02-14T19:00:36;99554.56;;;14.41;85.62
13241;BME280;6687;47.790;7.322;2024-02-14T19:03:03;99552.81;;;14.40;85.69
13241;BME280;6687;47.790;7.322;2024-02-14T19:05:30;99554.56;;;14.41;85.12
13241;BME280;6687;47.790;7.322;2024-02-14T19:07:57;99552.88;;;14.22;85.61
13241;BME280;6687;47.790;7.322;2024-02-14T19:10:25;99553.69;;;14.36;85.61
13241;BME280;6687;47.790;7.322;2024-02-14T19:12:52;99554.59;;;14.35;85.89
13241;BME280;6687;47.790;7.322;2024-02-14T19:15:18;99560.69;;;14.32;85.96
13241;BME280;6687;47.790;7.322;2024-02-14T19:17:45;99564.16;;;14.33;86.25
13241;BME280;6687;47.790;7.322;2024-02-14T19:20:13;99571.09;;;14.32;86.09
13241;BME280;6687;47.790;7.322;2024-02-14T19:22:40;99578.03;;;14.32;85.97
13241;BME280;6687;47.790;7.322;2024-02-14T19:25:07;99554.56;;;14.38;85.77
13241;BME280;6687;47.790;7.322;2024-02-14T19:27:35;99557.19;;;14.35;86.12
13241;BME280;6687;47.790;7.322;2024-02-14T19:30:03;99554.59;;;14.33;86.15